Huvudsida
METAR-TAF:

METAR-TAF

Flygplatser :

Dijon, Frankrike

latitud: 47-16N, longitud: 005-05E, höjd: 222 m

Aktuellt väderrapport

Denna rapport gjordes för 37 minuter sedan, klockan 23:00 UTC
Vind 7 kt från nord
Temperatur 16°C
Fuktighet 55%
Tryck 1029 hPa
Sikt 10 km eller mer
Inga moln under 1 500 m eller inga cumulonimbus

METAR: LFSD 272300Z AUTO 36007KT CAVOK 16/07 Q1029

Tid: 01:37 (23:37 UTC)


TAF: saknas

Aktuella väderrapporter och prognoser från 4000 flygplatser (METAR- och TAF-rapporter).

De tillgängliga stationerna syns som gula och röda prickar på kartan.

För musen över prickarna för att se namnen på stationerna.

Klicka sedan för att få väderrapporter och prognoser.

För att ändra kartan: Klicka på de gröna knapparna med ett svart kors på för att zooma in; den gröna knappen med ett streck på för att zooma ut; eller på de gröna pilarna för angränsande kartor.


METAR-TAF: